• Join FlightAware (Why Join?)
  • Login
  • US Flag 
10:49AM EDT


 

Airport Tracker/Info


-or-


 

Live Flight TrackerFlight Track Log ✈ EJA662 ✈ 13-Dec-2013 ✈ KMKE - KPBI

Flight Track Log - Related Links

Times and Time Zones

All times are in EST time to prevent confusion due to time zone crossing. See the EJA662 flight status page for this flight to view local times or setup timezone preferences in your user account.

Time Position Orientation Groundspeed Altitude Reporting Facility
EST Latitude Longitude Course Direction KTS MPH feet Rate Location/Type
03:17PM 42.9333 -87.9000 206° Southwest 161 185 1,600  Level KMKE
03:18PM 42.8833 -87.9333 206° Southwest 217 250 5,000 3,180 Climbing KMKE
03:19PM 42.8333 -88.0000 224° Southwest 244 281 8,400 2,700 Climbing KMKE
03:21PM 42.7644 -88.0625 214° Southwest 255 293 11,800 1,920 Climbing Chicago Center
03:22PM 42.6661 -88.0372 169° South 298 343 13,300 1,860 Climbing Chicago Center
03:23PM 42.5803 -88.0347 179° South 307 353 15,700 2,160 Climbing Chicago Center
03:24PM 42.4903 -88.0292 177° South 320 368 17,800 2,040 Climbing Chicago Center
03:25PM 42.3961 -88.0225 177° South 335 386 20,000 2,160 Climbing Chicago Center
03:26PM 42.3011 -88.0172 178° South 341 392 22,300 2,160 Climbing Chicago Center
03:27PM 42.2053 -88.0117 178° South 343 395 24,500 2,280 Climbing Chicago Center
03:28PM 42.0864 -88.0036 177° South 356 410 27,100 2,400 Climbing Chicago Center
03:29PM 41.9894 -87.9844 172° South 353 406 29,500 2,100 Climbing Chicago Center
03:30PM 41.8919 -87.9606 170° South 356 410 31,500 1,200 Climbing Chicago Center
03:31PM 41.7922 -87.9369 170° South 361 415 32,100 960 Climbing Chicago Center
03:32PM 41.6861 -87.9106 169° South 381 438 33,500 1,200 Climbing Chicago Center
03:33PM 41.5808 -87.8864 170° South 381 438 34,600 1,080 Climbing Chicago Center
03:34PM 41.4756 -87.8250 156° South 417 480 35,800 1,440 Climbing Chicago Center
03:35PM 41.3511 -87.7389 153° Southeast 416 479 37,600 1,500 Climbing Chicago Center
03:36PM 41.2481 -87.7147 170° South 381 438 39,000 1,380 Climbing Chicago Center
03:37PM 41.1475 -87.6925 171° South 368 423 40,500 960 Climbing Chicago Center
03:38PM 41.0478 -87.6722 171° South 364 419 41,000 240 Climbing Chicago Center
03:40PM 40.9414 -87.6472 170° South 381 438 41,000  Level Chicago Center
03:41PM 40.8303 -87.6222 170° South 398 458 41,000  Level Chicago Center
03:42PM 40.7172 -87.5981 171° South 407 468 41,000  Level Chicago Center
03:43PM 40.5844 -87.5700 171° South 405 466 41,000  Level Chicago Center
03:44PM 40.4739 -87.5464 171° South 404 465 41,000  Level Chicago Center
03:45PM 40.3600 -87.5225 171° South 409 471 41,000  Level Chicago Center
03:46PM 40.2486 -87.4981 170° South 409 471 41,000  Level Chicago Center
03:47PM 40.1356 -87.4756 171° South 409 471 41,000  Level Chicago Center
03:48PM 40.0231 -87.4525 171° South 411 473 41,000  Level Chicago Center
03:49PM 39.8889 -87.4258 171° South 409 471 41,000  Level Chicago Center
03:50PM 39.7775 -87.4025 171° South 408 470 41,000  Level Chicago Center
03:51PM 39.6408 -87.3739 171° South 411 473 41,000  Level Indianapolis Center
03:52PM 39.5244 -87.3500 171° South 420 483 41,000  Level Indianapolis Center
03:53PM 39.3853 -87.3211 171° South 424 488 41,000  Level Indianapolis Center
03:54PM 39.2706 -87.2983 171° South 422 486 41,000  Level Indianapolis Center
03:55PM 39.1556 -87.2750 171° South 421 484 41,000  Level Indianapolis Center
03:56PM 39.0319 -87.2492 171° South 422 486 41,000  Level Indianapolis Center
03:57PM 38.9156 -87.2264 171° South 421 484 41,000  Level Indianapolis Center
03:58PM 38.8000 -87.2028 171° South 420 483 41,000  Level Indianapolis Center
03:59PM 38.6847 -87.1789 171° South 418 481 41,000  Level Indianapolis Center
04:00PM 38.5700 -87.1558 171° South 417 480 41,000  Level Indianapolis Center
04:01PM 38.4561 -87.1336 171° South 415 478 41,000  Level Indianapolis Center
04:02PM 38.3325 -87.1089 171° South 415 478 41,000  Level Indianapolis Center
04:04PM 38.1958 -87.0831 172° South 415 478 41,000  Level Indianapolis Center
04:05PM 38.0986 -87.0625 171° South 417 480 41,000  Level Indianapolis Center
04:06PM 37.9594 -87.0353 171° South 419 482 41,000  Level Indianapolis Center
04:07PM 37.8433 -87.0119 171° South 420 483 41,000  Level Indianapolis Center
04:08PM 37.7253 -86.9892 171° South 426 490 41,000  Level Indianapolis Center
04:09PM 37.6089 -86.9658 171° South 423 487 41,000  Level Indianapolis Center
04:10PM 37.4878 -86.9456 172° South 424 488 41,000  Level Indianapolis Center
04:11PM 37.3703 -86.9214 171° South 424 488 41,000  Level Indianapolis Center
04:12PM 37.2536 -86.8992 171° South 421 484 41,000  Level Indianapolis Center
04:13PM 37.1172 -86.8725 171° South 422 486 41,000  Level Indianapolis Center
04:14PM 37.0008 -86.8339 165° South 429 494 41,000  Level Indianapolis Center
04:15PM 36.8836 -86.7828 161° South 438 504 41,000  Level Indianapolis Center
04:16PM 36.7867 -86.7419 161° South 437 503 41,000  Level Memphis Center
04:17PM 36.6694 -86.6933 162° South 437 503 41,000  Level Memphis Center
04:18PM 36.5306 -86.6378 162° South 440 506 41,000  Level Memphis Center
04:19PM 36.4111 -86.5883 162° South 442 509 41,000  Level Memphis Center
04:20PM 36.2903 -86.5397 162° South 445 512 41,000  Level Memphis Center
04:21PM 36.1700 -86.4911 162° South 446 513 41,000  Level Memphis Center
04:22PM 36.0497 -86.4431 162° South 446 513 41,000  Level Memphis Center
04:23PM 35.9300 -86.3944 162° South 447 514 41,000  Level Memphis Center
04:24PM 35.8106 -86.3467 162° South 445 512 41,000  Level Memphis Center
04:25PM 35.6919 -86.2989 162° South 444 511 41,000  Level Memphis Center
04:26PM 35.5919 -86.2606 163° South 469 540 41,000  Level Atlanta Center
04:27PM 35.4739 -86.2114 161° South 456 525 41,000  Level Atlanta Center
04:28PM 35.3475 -86.1597 162° South 451 519 41,000  Level Atlanta Center
04:29PM 35.2272 -86.1136 163° South 451 519 41,000  Level Atlanta Center
04:30PM 35.1236 -86.0753 163° South 446 513 41,000  Level Atlanta Center
04:31PM 35.0053 -86.0294 162° South 446 513 41,000  Level Atlanta Center
04:32PM 34.8767 -85.9781 162° South 446 513 41,000  Level Atlanta Center
04:33PM 34.7586 -85.9275 161° South 446 513 41,000  Level Atlanta Center
04:34PM 34.6425 -85.8844 163° South 441 507 41,000  Level Atlanta Center
04:35PM 34.5219 -85.8364 162° South 441 507 41,000  Level Atlanta Center
04:36PM 34.4161 -85.7989 164° South 436 502 41,000  Level Atlanta Center
04:37PM 34.2875 -85.7483 162° South 436 502 41,000  Level Atlanta Center
04:38PM 34.1692 -85.7033 163° South 441 507 41,000  Level Atlanta Center
04:39PM 34.0508 -85.6608 163° South 441 507 41,000  Level Atlanta Center
04:40PM 33.9325 -85.6136 162° South 436 502 41,000  Level Atlanta Center
04:41PM 33.8139 -85.5714 164° South 441 507 41,000  Level Atlanta Center
04:42PM 33.6956 -85.5269 163° South 441 507 41,000  Level Atlanta Center
04:43PM 33.5769 -85.4825 163° South 441 507 41,000  Level Atlanta Center
04:44PM 33.4608 -85.4381 162° South 447 514 41,000  Level Atlanta Center
04:45PM 33.3464 -85.3942 162° South 435 501 41,000  Level Atlanta Center
04:46PM 33.2258 -85.3500 163° South 442 509 41,000  Level Atlanta Center
04:47PM 33.1094 -85.3086 163° South 437 503 41,000  Level Atlanta Center
04:48PM 32.9908 -85.2572 160° South 437 503 41,000  Level Atlanta Center
04:49PM 32.8725 -85.2086 161° South 442 509 41,000  Level Atlanta Center
04:50PM 32.7600 -85.1703 164° South 442 509 41,000  Level Atlanta Center
04:51PM 32.6394 -85.1242 162° South 449 517 41,000  Level Atlanta Center
04:52PM 32.5208 -85.0808 163° South 444 511 41,000  Level Atlanta Center
04:53PM 32.4042 -85.0378 163° South 439 505 41,000  Level Atlanta Center
04:54PM 32.2856 -84.9947 163° South 439 505 41,000  Level Atlanta Center
04:55PM 32.1794 -84.9592 164° South 439 505 41,000  Level Atlanta Center
04:56PM 32.0608 -84.9161 163° South 439 505 41,000  Level Atlanta Center
04:57PM 31.9400 -84.8733 163° South 444 511 41,000  Level Atlanta Center
04:59PM 31.6536 -84.7669 162° South 470 541 41,000  Level Jacksonville Center
05:00PM 31.5311 -84.7231 163° South 460 529 41,000  Level Jacksonville Center
05:01PM 31.4128 -84.6794 163° South 460 529 41,000  Level Jacksonville Center
05:02PM 31.2903 -84.6381 164° South 455 524 41,000  Level Jacksonville Center
05:03PM 31.1700 -84.5703 154° Southeast 460 529 41,000  Level Jacksonville Center
05:04PM 31.0561 -84.4883 148° Southeast 468 539 41,000  Level Jacksonville Center
05:05PM 30.9425 -84.4017 147° Southeast 475 547 41,000  Level Jacksonville Center
05:06PM 30.8286 -84.3175 148° Southeast 485 558 41,000  Level Jacksonville Center
05:07PM 30.7147 -84.2311 147° Southeast 485 558 41,000  Level Jacksonville Center
05:08PM 30.6028 -84.1475 147° Southeast 485 558 41,000  Level Jacksonville Center
05:09PM 30.4825 -84.0569 147° Southeast 485 558 41,000  Level Jacksonville Center
05:10PM 30.3664 -83.9736 148° Southeast 485 558 41,000  Level Jacksonville Center
05:11PM 30.2542 -83.8931 148° Southeast 480 552 41,000  Level Jacksonville Center
05:12PM 30.1400 -83.8078 147° Southeast 485 558 41,000  Level Jacksonville Center
05:13PM 30.0236 -83.7250 148° Southeast 485 558 41,000  Level Jacksonville Center
05:14PM 29.9114 -83.6450 148° Southeast 485 558 41,000  Level Jacksonville Center
05:15PM 29.7992 -83.5628 148° Southeast 485 558 41,000  Level Jacksonville Center
05:16PM 29.6931 -83.4881 149° Southeast 491 565 41,000  Level Jacksonville Center
05:17PM 29.5806 -83.4061 148° Southeast 491 565 41,000  Level Jacksonville Center
05:18PM 29.4661 -83.3219 147° Southeast 491 565 41,000  Level Jacksonville Center
05:19PM 29.3494 -83.2403 149° Southeast 491 565 41,000  Level Jacksonville Center
05:20PM 29.2392 -83.1592 147° Southeast 491 565 41,000  Level Jacksonville Center
05:21PM 29.1264 -83.0781 148° Southeast 486 559 41,000  Level Jacksonville Center
05:22PM 29.0139 -82.9994 149° Southeast 480 552 41,000  Level Jacksonville Center
05:23PM 28.9033 -82.9211 148° Southeast 480 552 41,000  Level Jacksonville Center
05:24PM 28.7906 -82.8406 148° Southeast 480 552 41,000  Level Jacksonville Center
05:25PM 28.6694 -82.7578 149° Southeast 475 547 41,000  Level Jacksonville Center
05:26PM 28.5589 -82.6775 147° Southeast 475 547 41,000  Level Jacksonville Center
05:28PM 28.3878 -82.5569 148° Southeast 489 563 41,000 -480 Level Miami Center
05:29PM 28.2722 -82.4758 148° Southeast 484 557 39,900 -1,800 Descending Miami Center
05:30PM 28.1564 -82.3969 149° Southeast 479 551 37,400 -2,460 Descending Miami Center
05:31PM 28.0425 -82.3186 149° Southeast 479 551 35,000 -1,260 Descending Miami Center
05:32PM 27.9169 -82.2703 161° South 473 544 34,900 -540 Descending Miami Center
05:33PM 27.8183 -82.2350 162° South 467 537 34,000 -1,320 Descending Miami Center
05:34PM 27.6803 -82.1839 162° South 472 543 32,300 -1,680 Descending Miami Center
05:35PM 27.5442 -82.1378 163° South 472 543 30,700 -1,560 Descending Miami Center
05:36PM 27.4206 -82.0947 163° South 467 537 29,200 -1,500 Descending Miami Center
05:37PM 27.2969 -82.0519 163° South 467 537 27,800 -1,500 Descending Miami Center
05:38PM 27.1875 -82.0167 164° South 462 532 26,300 -1,560 Descending Miami Center
05:39PM 27.0575 -81.9758 164° South 447 514 24,700 -1,380 Descending Miami Center
05:40PM 26.9564 -81.9433 164° South 440 506 23,600 -1,320 Descending Miami Center
05:41PM 26.8647 -81.8789 148° Southeast 392 451 22,100 -1,500 Descending Miami Center
05:42PM 26.7822 -81.7917 137° Southeast 398 458 20,700 -1,500 Descending Miami Center
05:43PM 26.7083 -81.6908 129° Southeast 404 465 19,200 -900 Descending Miami Center
05:44PM 26.7108 -81.5517 89° East 375 432 19,000 -600 Descending Miami Center
05:45PM 26.7353 -81.4364 77° East 369 425 18,000 -1,320 Descending Miami Center
05:46PM 26.7597 -81.3233 76° East 369 425 16,400 -1,620 Descending Miami Center
05:47PM 26.7883 -81.2058 75° East 374 430 14,800 -1,620 Descending Miami Center
05:48PM 26.8147 -81.0928 75° East 379 436 13,200 -1,620 Descending Miami Center
05:49PM 26.8303 -80.9817 81° East 372 428 11,600 -1,500 Descending Miami Center
05:50PM 26.8394 -80.8819 84° East 338 389 10,300 -840 Descending Miami Center
05:51PM 26.8206 -80.8044 105° East 298 343 10,000 -180 Descending Miami Center
05:52PM 26.7917 -80.7172 110° East 286 329 10,000 -660 Level Miami Center
05:53PM 26.7522 -80.6278 116° Southeast 297 342 8,700 -1,560 Descending Miami Center
05:54PM 26.7231 -80.5478 112° Southeast 278 320 6,900 -1,740 Descending Miami Center
05:55PM 26.6958 -80.4700 111° Southeast 278 320 5,300 -1,740 Descending Miami Center
05:56PM 26.6933 -80.3933 92° East 254 292 3,500 -1,620 Descending Miami Center
05:57PM 26.6889 -80.3211 94° East 238 274 2,100 -780 Descending Miami Center
05:58PM 26.6861 -80.2628 93° East 199 229 2,000 -120 Descending Miami Center
05:59PM 26.6853 -80.2117 91° East 171 197 1,900 -120 Descending Miami Center
06:01PM 26.6607 -80.0913 50° Northeast  Level FlightAware Approximate
06:08PM 26.6667 -80.0833 50° Northeast  Level FlightAware Approximate
06:09PM 26.6832 -80.0956 50° Northeast  Level Estimated